sensor_id;sensor_type;location;lat;lon;timestamp;P1;durP1;ratioP1;P2;durP2;ratioP2
50092;SDS011;35974;47.752;10.290;2022-10-28T00:00:29;4.25;;;2.30;;
50092;SDS011;35974;47.752;10.290;2022-10-28T00:02:56;6.75;;;2.58;;
50092;SDS011;35974;47.752;10.290;2022-10-28T00:05:25;10.73;;;2.75;;
50092;SDS011;35974;47.752;10.290;2022-10-28T00:07:51;6.10;;;2.50;;
50092;SDS011;35974;47.752;10.290;2022-10-28T00:10:18;5.18;;;2.22;;
50092;SDS011;35974;47.752;10.290;2022-10-28T00:12:45;11.65;;;2.50;;
50092;SDS011;35974;47.752;10.290;2022-10-28T00:15:11;4.80;;;2.30;;
50092;SDS011;35974;47.752;10.290;2022-10-28T00:17:37;8.32;;;2.60;;
50092;SDS011;35974;47.752;10.290;2022-10-28T00:20:04;5.50;;;2.20;;
50092;SDS011;35974;47.752;10.290;2022-10-28T00:22:31;5.75;;;2.60;;
50092;SDS011;35974;47.752;10.290;2022-10-28T00:24:57;6.28;;;2.50;;
50092;SDS011;35974;47.752;10.290;2022-10-28T00:27:24;6.28;;;2.15;;
50092;SDS011;35974;47.752;10.290;2022-10-28T00:29:50;10.00;;;2.30;;
50092;SDS011;35974;47.752;10.290;2022-10-28T00:32:16;12.38;;;2.38;;
50092;SDS011;35974;47.752;10.290;2022-10-28T00:34:43;5.20;;;2.33;;
50092;SDS011;35974;47.752;10.290;2022-10-28T00:37:09;6.53;;;2.40;;
50092;SDS011;35974;47.752;10.290;2022-10-28T00:39:36;5.00;;;2.40;;
50092;SDS011;35974;47.752;10.290;2022-10-28T00:42:02;4.43;;;2.15;;
50092;SDS011;35974;47.752;10.290;2022-10-28T00:47:23;8.18;;;2.35;;
50092;SDS011;35974;47.752;10.290;2022-10-28T00:50:02;5.30;;;2.22;;
50092;SDS011;35974;47.752;10.290;2022-10-28T00:52:30;7.07;;;2.10;;
50092;SDS011;35974;47.752;10.290;2022-10-28T00:54:58;9.90;;;2.22;;
50092;SDS011;35974;47.752;10.290;2022-10-28T00:57:27;8.77;;;2.10;;
50092;SDS011;35974;47.752;10.290;2022-10-28T00:59:58;5.10;;;2.10;;
50092;SDS011;35974;47.752;10.290;2022-10-28T01:02:27;6.70;;;2.55;;
50092;SDS011;35974;47.752;10.290;2022-10-28T01:04:53;11.23;;;2.20;;
50092;SDS011;35974;47.752;10.290;2022-10-28T01:07:20;5.93;;;2.10;;
50092;SDS011;35974;47.752;10.290;2022-10-28T01:09:47;8.80;;;2.42;;
50092;SDS011;35974;47.752;10.290;2022-10-28T01:20:52;10.93;;;2.22;;
50092;SDS011;35974;47.752;10.290;2022-10-28T01:31:43;5.28;;;1.83;;
50092;SDS011;35974;47.752;10.290;2022-10-28T01:39:28;9.27;;;1.52;;
50092;SDS011;35974;47.752;10.290;2022-10-28T01:44:51;13.10;;;1.98;;
50092;SDS011;35974;47.752;10.290;2022-10-28T01:47:37;7.15;;;1.70;;
50092;SDS011;35974;47.752;10.290;2022-10-28T01:50:07;6.57;;;1.77;;
50092;SDS011;35974;47.752;10.290;2022-10-28T01:52:40;3.75;;;1.58;;
50092;SDS011;35974;47.752;10.290;2022-10-28T01:57:56;5.15;;;1.88;;
50092;SDS011;35974;47.752;10.290;2022-10-28T02:00:25;8.50;;;1.90;;
50092;SDS011;35974;47.752;10.290;2022-10-28T02:02:53;6.70;;;1.75;;
50092;SDS011;35974;47.752;10.290;2022-10-28T02:22:10;3.57;;;1.40;;
50092;SDS011;35974;47.752;10.290;2022-10-28T02:27:19;5.75;;;1.85;;
50092;SDS011;35974;47.752;10.290;2022-10-28T02:29:54;5.43;;;1.70;;
50092;SDS011;35974;47.752;10.290;2022-10-28T02:32:29;7.50;;;1.63;;
50092;SDS011;35974;47.752;10.290;2022-10-28T02:34:59;7.07;;;1.63;;
50092;SDS011;35974;47.752;10.290;2022-10-28T02:37:30;6.18;;;1.80;;
50092;SDS011;35974;47.752;10.290;2022-10-28T02:40:04;3.70;;;1.15;;
50092;SDS011;35974;47.752;10.290;2022-10-28T02:42:37;7.32;;;1.60;;
50092;SDS011;35974;47.752;10.290;2022-10-28T02:45:10;2.80;;;1.13;;
50092;SDS011;35974;47.752;10.290;2022-10-28T02:47:42;4.20;;;1.80;;
50092;SDS011;35974;47.752;10.290;2022-10-28T02:50:21;3.78;;;1.70;;
50092;SDS011;35974;47.752;10.290;2022-10-28T02:52:54;7.38;;;1.83;;
50092;SDS011;35974;47.752;10.290;2022-10-28T02:55:24;6.00;;;1.98;;
50092;SDS011;35974;47.752;10.290;2022-10-28T02:57:57;6.50;;;2.00;;
50092;SDS011;35974;47.752;10.290;2022-10-28T03:00:24;6.00;;;1.50;;
50092;SDS011;35974;47.752;10.290;2022-10-28T03:02:51;10.88;;;1.70;;
50092;SDS011;35974;47.752;10.290;2022-10-28T03:05:18;3.30;;;1.20;;
50092;SDS011;35974;47.752;10.290;2022-10-28T03:07:48;11.88;;;1.63;;
50092;SDS011;35974;47.752;10.290;2022-10-28T03:10:14;3.63;;;1.50;;
50092;SDS011;35974;47.752;10.290;2022-10-28T03:12:41;8.27;;;1.50;;
50092;SDS011;35974;47.752;10.290;2022-10-28T03:15:07;5.60;;;1.70;;
50092;SDS011;35974;47.752;10.290;2022-10-28T03:17:34;8.98;;;1.77;;
50092;SDS011;35974;47.752;10.290;2022-10-28T03:20:00;6.57;;;1.40;;
50092;SDS011;35974;47.752;10.290;2022-10-28T03:22:27;6.25;;;1.67;;
50092;SDS011;35974;47.752;10.290;2022-10-28T03:24:53;5.22;;;1.60;;
50092;SDS011;35974;47.752;10.290;2022-10-28T03:27:20;4.78;;;1.73;;
50092;SDS011;35974;47.752;10.290;2022-10-28T03:29:46;5.40;;;1.50;;
50092;SDS011;35974;47.752;10.290;2022-10-28T03:32:13;6.75;;;1.75;;
50092;SDS011;35974;47.752;10.290;2022-10-28T03:34:39;9.13;;;1.83;;
50092;SDS011;35974;47.752;10.290;2022-10-28T03:37:06;5.45;;;1.63;;
50092;SDS011;35974;47.752;10.290;2022-10-28T03:39:32;6.22;;;1.83;;
50092;SDS011;35974;47.752;10.290;2022-10-28T03:41:59;5.28;;;1.48;;
50092;SDS011;35974;47.752;10.290;2022-10-28T03:44:25;6.20;;;1.15;;
50092;SDS011;35974;47.752;10.290;2022-10-28T03:46:52;6.75;;;1.60;;
50092;SDS011;35974;47.752;10.290;2022-10-28T03:49:18;6.18;;;2.08;;
50092;SDS011;35974;47.752;10.290;2022-10-28T03:51:45;3.78;;;1.45;;
50092;SDS011;35974;47.752;10.290;2022-10-28T03:54:11;5.85;;;1.25;;
50092;SDS011;35974;47.752;10.290;2022-10-28T03:56:37;4.47;;;1.50;;
50092;SDS011;35974;47.752;10.290;2022-10-28T03:59:08;4.65;;;1.77;;
50092;SDS011;35974;47.752;10.290;2022-10-28T04:01:35;9.35;;;1.80;;
50092;SDS011;35974;47.752;10.290;2022-10-28T04:04:01;7.85;;;1.90;;
50092;SDS011;35974;47.752;10.290;2022-10-28T04:06:28;6.63;;;1.70;;
50092;SDS011;35974;47.752;10.290;2022-10-28T04:08:54;3.97;;;1.88;;
50092;SDS011;35974;47.752;10.290;2022-10-28T04:11:27;8.65;;;1.73;;
50092;SDS011;35974;47.752;10.290;2022-10-28T04:13:53;7.68;;;1.50;;
50092;SDS011;35974;47.752;10.290;2022-10-28T04:16:19;4.82;;;1.77;;
50092;SDS011;35974;47.752;10.290;2022-10-28T04:18:46;11.30;;;1.75;;
50092;SDS011;35974;47.752;10.290;2022-10-28T04:21:12;5.53;;;1.60;;
50092;SDS011;35974;47.752;10.290;2022-10-28T04:23:39;9.98;;;1.63;;
50092;SDS011;35974;47.752;10.290;2022-10-28T04:26:05;9.85;;;1.65;;
50092;SDS011;35974;47.752;10.290;2022-10-28T04:28:32;7.07;;;1.92;;
50092;SDS011;35974;47.752;10.290;2022-10-28T04:30:58;4.25;;;1.50;;
50092;SDS011;35974;47.752;10.290;2022-10-28T04:33:25;7.07;;;1.65;;
50092;SDS011;35974;47.752;10.290;2022-10-28T04:35:52;4.45;;;1.60;;
50092;SDS011;35974;47.752;10.290;2022-10-28T04:38:18;7.80;;;1.60;;
50092;SDS011;35974;47.752;10.290;2022-10-28T04:40:46;3.67;;;1.60;;
50092;SDS011;35974;47.752;10.290;2022-10-28T04:43:14;6.97;;;1.60;;
50092;SDS011;35974;47.752;10.290;2022-10-28T04:45:40;8.57;;;1.60;;
50092;SDS011;35974;47.752;10.290;2022-10-28T04:48:07;7.53;;;1.85;;
50092;SDS011;35974;47.752;10.290;2022-10-28T04:50:35;4.93;;;2.38;;
50092;SDS011;35974;47.752;10.290;2022-10-28T04:53:02;8.95;;;1.73;;
50092;SDS011;35974;47.752;10.290;2022-10-28T04:55:28;6.30;;;1.67;;
50092;SDS011;35974;47.752;10.290;2022-10-28T04:58:05;5.10;;;1.45;;
50092;SDS011;35974;47.752;10.290;2022-10-28T05:03:01;7.97;;;1.52;;
50092;SDS011;35974;47.752;10.290;2022-10-28T05:05:28;6.45;;;1.80;;
50092;SDS011;35974;47.752;10.290;2022-10-28T05:07:54;12.05;;;1.73;;
50092;SDS011;35974;47.752;10.290;2022-10-28T05:10:22;6.60;;;1.80;;
50092;SDS011;35974;47.752;10.290;2022-10-28T05:12:48;7.18;;;1.85;;
50092;SDS011;35974;47.752;10.290;2022-10-28T05:15:15;4.90;;;1.77;;
50092;SDS011;35974;47.752;10.290;2022-10-28T05:17:42;10.98;;;2.25;;
50092;SDS011;35974;47.752;10.290;2022-10-28T05:20:09;6.95;;;1.80;;
50092;SDS011;35974;47.752;10.290;2022-10-28T05:22:43;6.28;;;1.80;;
50092;SDS011;35974;47.752;10.290;2022-10-28T05:25:10;3.95;;;1.65;;
50092;SDS011;35974;47.752;10.290;2022-10-28T05:27:37;8.70;;;1.70;;
50092;SDS011;35974;47.752;10.290;2022-10-28T05:30:03;10.55;;;3.08;;
50092;SDS011;35974;47.752;10.290;2022-10-28T05:32:30;7.72;;;3.05;;
50092;SDS011;35974;47.752;10.290;2022-10-28T05:34:56;12.02;;;2.85;;
50092;SDS011;35974;47.752;10.290;2022-10-28T05:37:23;4.22;;;1.90;;
50092;SDS011;35974;47.752;10.290;2022-10-28T05:39:49;5.00;;;1.60;;
50092;SDS011;35974;47.752;10.290;2022-10-28T05:42:16;16.65;;;3.13;;
50092;SDS011;35974;47.752;10.290;2022-10-28T05:44:42;11.95;;;3.05;;
50092;SDS011;35974;47.752;10.290;2022-10-28T05:47:09;7.03;;;2.58;;
50092;SDS011;35974;47.752;10.290;2022-10-28T05:49:35;25.27;;;3.53;;
50092;SDS011;35974;47.752;10.290;2022-10-28T05:52:03;7.38;;;2.40;;
50092;SDS011;35974;47.752;10.290;2022-10-28T05:54:29;6.63;;;2.33;;
50092;SDS011;35974;47.752;10.290;2022-10-28T05:56:55;7.40;;;2.53;;
50092;SDS011;35974;47.752;10.290;2022-10-28T05:59:22;8.50;;;2.70;;
50092;SDS011;35974;47.752;10.290;2022-10-28T06:01:48;10.35;;;2.90;;
50092;SDS011;35974;47.752;10.290;2022-10-28T06:04:15;9.43;;;2.28;;
50092;SDS011;35974;47.752;10.290;2022-10-28T06:06:41;17.38;;;2.97;;
50092;SDS011;35974;47.752;10.290;2022-10-28T06:09:08;7.07;;;2.63;;
50092;SDS011;35974;47.752;10.290;2022-10-28T06:11:34;5.68;;;2.20;;
50092;SDS011;35974;47.752;10.290;2022-10-28T06:14:01;8.30;;;3.17;;
50092;SDS011;35974;47.752;10.290;2022-10-28T06:16:28;18.45;;;4.97;;
50092;SDS011;35974;47.752;10.290;2022-10-28T06:18:55;11.70;;;3.47;;
50092;SDS011;35974;47.752;10.290;2022-10-28T06:21:21;10.23;;;2.42;;
50092;SDS011;35974;47.752;10.290;2022-10-28T06:23:47;8.88;;;2.33;;
50092;SDS011;35974;47.752;10.290;2022-10-28T06:26:14;7.20;;;2.72;;
50092;SDS011;35974;47.752;10.290;2022-10-28T06:28:45;9.65;;;2.60;;
50092;SDS011;35974;47.752;10.290;2022-10-28T06:31:12;6.35;;;3.20;;
50092;SDS011;35974;47.752;10.290;2022-10-28T06:33:38;11.07;;;2.92;;
50092;SDS011;35974;47.752;10.290;2022-10-28T06:36:05;12.00;;;3.25;;
50092;SDS011;35974;47.752;10.290;2022-10-28T06:38:32;6.68;;;2.40;;
50092;SDS011;35974;47.752;10.290;2022-10-28T06:40:58;5.53;;;2.50;;
50092;SDS011;35974;47.752;10.290;2022-10-28T06:43:25;4.93;;;2.58;;
50092;SDS011;35974;47.752;10.290;2022-10-28T06:45:51;4.78;;;2.20;;
50092;SDS011;35974;47.752;10.290;2022-10-28T06:48:22;4.93;;;2.13;;
50092;SDS011;35974;47.752;10.290;2022-10-28T06:50:49;6.45;;;2.08;;
50092;SDS011;35974;47.752;10.290;2022-10-28T06:53:15;6.20;;;2.47;;
50092;SDS011;35974;47.752;10.290;2022-10-28T06:55:42;6.13;;;2.80;;
50092;SDS011;35974;47.752;10.290;2022-10-28T06:58:13;11.93;;;2.90;;
50092;SDS011;35974;47.752;10.290;2022-10-28T07:00:40;14.80;;;3.15;;
50092;SDS011;35974;47.752;10.290;2022-10-28T07:03:07;10.25;;;2.72;;
50092;SDS011;35974;47.752;10.290;2022-10-28T07:05:34;8.32;;;2.50;;
50092;SDS011;35974;47.752;10.290;2022-10-28T07:08:01;8.32;;;2.50;;
50092;SDS011;35974;47.752;10.290;2022-10-28T07:10:27;6.18;;;2.28;;
50092;SDS011;35974;47.752;10.290;2022-10-28T07:12:54;7.00;;;2.25;;
50092;SDS011;35974;47.752;10.290;2022-10-28T07:15:21;7.82;;;2.03;;
50092;SDS011;35974;47.752;10.290;2022-10-28T07:17:54;5.57;;;1.92;;
50092;SDS011;35974;47.752;10.290;2022-10-28T07:20:22;5.57;;;2.03;;
50092;SDS011;35974;47.752;10.290;2022-10-28T07:22:57;6.15;;;2.25;;
50092;SDS011;35974;47.752;10.290;2022-10-28T07:25:25;6.88;;;2.28;;
50092;SDS011;35974;47.752;10.290;2022-10-28T07:27:56;9.50;;;2.22;;
50092;SDS011;35974;47.752;10.290;2022-10-28T07:30:23;9.32;;;2.65;;
50092;SDS011;35974;47.752;10.290;2022-10-28T07:32:50;7.95;;;2.30;;
50092;SDS011;35974;47.752;10.290;2022-10-28T07:35:18;6.15;;;2.15;;
50092;SDS011;35974;47.752;10.290;2022-10-28T07:37:45;6.47;;;2.38;;
50092;SDS011;35974;47.752;10.290;2022-10-28T07:40:12;5.63;;;2.13;;
50092;SDS011;35974;47.752;10.290;2022-10-28T07:42:39;5.72;;;2.10;;
50092;SDS011;35974;47.752;10.290;2022-10-28T07:45:05;6.88;;;2.40;;
50092;SDS011;35974;47.752;10.290;2022-10-28T07:47:32;7.38;;;2.58;;
50092;SDS011;35974;47.752;10.290;2022-10-28T07:49:58;7.63;;;2.38;;
50092;SDS011;35974;47.752;10.290;2022-10-28T07:52:25;7.22;;;2.33;;
50092;SDS011;35974;47.752;10.290;2022-10-28T07:54:51;10.02;;;2.30;;
50092;SDS011;35974;47.752;10.290;2022-10-28T07:57:18;13.00;;;2.50;;
50092;SDS011;35974;47.752;10.290;2022-10-28T07:59:44;10.15;;;2.70;;
50092;SDS011;35974;47.752;10.290;2022-10-28T08:02:14;6.43;;;2.60;;
50092;SDS011;35974;47.752;10.290;2022-10-28T08:04:43;7.95;;;1.88;;
50092;SDS011;35974;47.752;10.290;2022-10-28T08:07:10;10.52;;;2.22;;
50092;SDS011;35974;47.752;10.290;2022-10-28T08:09:37;6.43;;;2.47;;
50092;SDS011;35974;47.752;10.290;2022-10-28T08:12:04;9.70;;;2.20;;
50092;SDS011;35974;47.752;10.290;2022-10-28T08:14:31;6.20;;;2.10;;
50092;SDS011;35974;47.752;10.290;2022-10-28T08:16:57;4.07;;;2.00;;
50092;SDS011;35974;47.752;10.290;2022-10-28T08:19:24;11.70;;;2.45;;
50092;SDS011;35974;47.752;10.290;2022-10-28T08:21:50;6.10;;;2.42;;
50092;SDS011;35974;47.752;10.290;2022-10-28T08:24:17;8.77;;;2.13;;
50092;SDS011;35974;47.752;10.290;2022-10-28T08:26:43;13.88;;;2.83;;
50092;SDS011;35974;47.752;10.290;2022-10-28T08:29:09;11.13;;;2.35;;
50092;SDS011;35974;47.752;10.290;2022-10-28T08:31:37;8.07;;;2.80;;
50092;SDS011;35974;47.752;10.290;2022-10-28T08:34:04;8.27;;;2.40;;
50092;SDS011;35974;47.752;10.290;2022-10-28T08:36:31;9.60;;;2.40;;
50092;SDS011;35974;47.752;10.290;2022-10-28T08:38:59;7.40;;;2.20;;
50092;SDS011;35974;47.752;10.290;2022-10-28T08:41:37;11.43;;;3.00;;
50092;SDS011;35974;47.752;10.290;2022-10-28T08:44:41;11.32;;;2.58;;
50092;SDS011;35974;47.752;10.290;2022-10-28T08:49:44;5.03;;;2.40;;
50092;SDS011;35974;47.752;10.290;2022-10-28T08:55:04;4.50;;;1.90;;
50092;SDS011;35974;47.752;10.290;2022-10-28T08:57:38;5.82;;;1.90;;
50092;SDS011;35974;47.752;10.290;2022-10-28T09:00:17;5.55;;;1.85;;
50092;SDS011;35974;47.752;10.290;2022-10-28T09:05:37;3.25;;;1.42;;
50092;SDS011;35974;47.752;10.290;2022-10-28T09:08:04;4.93;;;1.42;;
50092;SDS011;35974;47.752;10.290;2022-10-28T09:19:46;4.65;;;1.92;;
50092;SDS011;35974;47.752;10.290;2022-10-28T09:30:58;4.28;;;1.70;;
50092;SDS011;35974;47.752;10.290;2022-10-28T09:36:00;11.35;;;2.47;;
50092;SDS011;35974;47.752;10.290;2022-10-28T09:38:30;10.05;;;1.85;;
50092;SDS011;35974;47.752;10.290;2022-10-28T09:41:00;8.50;;;1.80;;
50092;SDS011;35974;47.752;10.290;2022-10-28T09:43:31;5.00;;;2.25;;
50092;SDS011;35974;47.752;10.290;2022-10-28T09:46:13;5.15;;;2.25;;
50092;SDS011;35974;47.752;10.290;2022-10-28T09:48:51;5.75;;;2.38;;
50092;SDS011;35974;47.752;10.290;2022-10-28T09:54:10;15.38;;;3.17;;
50092;SDS011;35974;47.752;10.290;2022-10-28T09:56:38;14.50;;;3.15;;
50092;SDS011;35974;47.752;10.290;2022-10-28T09:59:05;7.57;;;2.25;;
50092;SDS011;35974;47.752;10.290;2022-10-28T10:01:33;10.57;;;2.00;;
50092;SDS011;35974;47.752;10.290;2022-10-28T10:04:05;14.55;;;2.90;;
50092;SDS011;35974;47.752;10.290;2022-10-28T10:06:43;5.43;;;1.73;;
50092;SDS011;35974;47.752;10.290;2022-10-28T10:09:18;5.90;;;1.98;;
50092;SDS011;35974;47.752;10.290;2022-10-28T10:14:17;4.70;;;1.95;;
50092;SDS011;35974;47.752;10.290;2022-10-28T10:16:51;10.02;;;2.00;;
50092;SDS011;35974;47.752;10.290;2022-10-28T10:19:20;9.15;;;1.95;;
50092;SDS011;35974;47.752;10.290;2022-10-28T10:24:25;7.75;;;2.70;;
50092;SDS011;35974;47.752;10.290;2022-10-28T10:26:56;7.90;;;2.63;;
50092;SDS011;35974;47.752;10.290;2022-10-28T10:29:25;9.63;;;2.55;;
50092;SDS011;35974;47.752;10.290;2022-10-28T10:32:07;5.50;;;2.60;;
50092;SDS011;35974;47.752;10.290;2022-10-28T10:34:49;9.48;;;2.80;;
50092;SDS011;35974;47.752;10.290;2022-10-28T10:37:23;6.10;;;2.13;;
50092;SDS011;35974;47.752;10.290;2022-10-28T10:42:37;12.98;;;3.28;;
50092;SDS011;35974;47.752;10.290;2022-10-28T10:45:25;10.60;;;2.00;;
50092;SDS011;35974;47.752;10.290;2022-10-28T10:50:52;10.65;;;1.80;;
50092;SDS011;35974;47.752;10.290;2022-10-28T10:53:21;7.35;;;2.10;;
50092;SDS011;35974;47.752;10.290;2022-10-28T10:55:51;5.75;;;1.52;;
50092;SDS011;35974;47.752;10.290;2022-10-28T10:58:21;3.65;;;1.50;;
50092;SDS011;35974;47.752;10.290;2022-10-28T11:00:50;6.88;;;1.60;;
50092;SDS011;35974;47.752;10.290;2022-10-28T11:03:24;6.75;;;2.03;;
50092;SDS011;35974;47.752;10.290;2022-10-28T11:05:54;5.50;;;1.77;;
50092;SDS011;35974;47.752;10.290;2022-10-28T11:08:42;4.43;;;1.52;;
50092;SDS011;35974;47.752;10.290;2022-10-28T11:11:19;8.32;;;1.80;;
50092;SDS011;35974;47.752;10.290;2022-10-28T11:13:47;3.85;;;1.35;;
50092;SDS011;35974;47.752;10.290;2022-10-28T11:16:26;7.20;;;1.50;;
50092;SDS011;35974;47.752;10.290;2022-10-28T11:18:53;7.32;;;1.52;;
50092;SDS011;35974;47.752;10.290;2022-10-28T11:26:56;6.28;;;1.70;;
50092;SDS011;35974;47.752;10.290;2022-10-28T11:29:31;9.40;;;1.70;;
50092;SDS011;35974;47.752;10.290;2022-10-28T11:34:49;6.10;;;1.70;;
50092;SDS011;35974;47.752;10.290;2022-10-28T11:46:04;11.02;;;2.38;;
50092;SDS011;35974;47.752;10.290;2022-10-28T12:03:19;11.23;;;1.70;;
50092;SDS011;35974;47.752;10.290;2022-10-28T12:22:05;5.82;;;1.67;;
50092;SDS011;35974;47.752;10.290;2022-10-28T12:24:38;5.00;;;1.30;;
50092;SDS011;35974;47.752;10.290;2022-10-28T12:27:31;7.53;;;1.90;;
50092;SDS011;35974;47.752;10.290;2022-10-28T12:30:00;8.43;;;1.63;;
50092;SDS011;35974;47.752;10.290;2022-10-28T12:32:32;6.75;;;1.70;;
50092;SDS011;35974;47.752;10.290;2022-10-28T12:35:04;5.85;;;1.92;;
50092;SDS011;35974;47.752;10.290;2022-10-28T12:37:56;8.90;;;1.73;;
50092;SDS011;35974;47.752;10.290;2022-10-28T12:40:38;5.72;;;1.52;;
50092;SDS011;35974;47.752;10.290;2022-10-28T12:43:11;8.95;;;1.67;;
50092;SDS011;35974;47.752;10.290;2022-10-28T12:45:49;5.45;;;1.30;;
50092;SDS011;35974;47.752;10.290;2022-10-28T12:48:21;4.85;;;1.33;;
50092;SDS011;35974;47.752;10.290;2022-10-28T12:56:05;5.10;;;1.50;;
50092;SDS011;35974;47.752;10.290;2022-10-28T12:58:39;9.27;;;1.60;;
50092;SDS011;35974;47.752;10.290;2022-10-28T13:01:13;7.00;;;1.80;;
50092;SDS011;35974;47.752;10.290;2022-10-28T13:03:43;6.25;;;1.65;;
50092;SDS011;35974;47.752;10.290;2022-10-28T13:12:14;11.40;;;1.85;;
50092;SDS011;35974;47.752;10.290;2022-10-28T13:17:53;7.95;;;1.83;;
50092;SDS011;35974;47.752;10.290;2022-10-28T13:25:58;6.18;;;1.63;;
50092;SDS011;35974;47.752;10.290;2022-10-28T13:28:33;7.50;;;2.10;;
50092;SDS011;35974;47.752;10.290;2022-10-28T13:31:05;8.57;;;1.70;;
50092;SDS011;35974;47.752;10.290;2022-10-28T13:33:33;5.10;;;1.80;;
50092;SDS011;35974;47.752;10.290;2022-10-28T13:36:09;5.32;;;1.70;;
50092;SDS011;35974;47.752;10.290;2022-10-28T13:38:41;6.68;;;1.30;;
50092;SDS011;35974;47.752;10.290;2022-10-28T13:41:24;4.85;;;1.80;;
50092;SDS011;35974;47.752;10.290;2022-10-28T13:49:23;7.25;;;1.73;;
50092;SDS011;35974;47.752;10.290;2022-10-28T13:52:01;8.38;;;2.03;;
50092;SDS011;35974;47.752;10.290;2022-10-28T14:00:02;6.20;;;1.73;;
50092;SDS011;35974;47.752;10.290;2022-10-28T14:08:46;10.88;;;1.88;;
50092;SDS011;35974;47.752;10.290;2022-10-28T14:13:55;6.90;;;1.98;;
50092;SDS011;35974;47.752;10.290;2022-10-28T14:16:30;7.47;;;1.88;;
50092;SDS011;35974;47.752;10.290;2022-10-28T14:21:44;10.30;;;1.83;;
50092;SDS011;35974;47.752;10.290;2022-10-28T14:24:34;7.65;;;1.38;;
50092;SDS011;35974;47.752;10.290;2022-10-28T14:29:29;7.72;;;1.48;;
50092;SDS011;35974;47.752;10.290;2022-10-28T14:31:55;11.55;;;2.22;;
50092;SDS011;35974;47.752;10.290;2022-10-28T14:34:24;5.30;;;1.70;;
50092;SDS011;35974;47.752;10.290;2022-10-28T14:37:05;3.13;;;1.70;;
50092;SDS011;35974;47.752;10.290;2022-10-28T14:42:46;5.15;;;1.52;;
50092;SDS011;35974;47.752;10.290;2022-10-28T14:48:15;8.13;;;1.50;;
50092;SDS011;35974;47.752;10.290;2022-10-28T14:50:57;4.38;;;1.48;;
50092;SDS011;35974;47.752;10.290;2022-10-28T14:53:28;5.13;;;1.50;;
50092;SDS011;35974;47.752;10.290;2022-10-28T14:56:04;10.95;;;2.05;;
50092;SDS011;35974;47.752;10.290;2022-10-28T14:58:41;9.15;;;2.13;;
50092;SDS011;35974;47.752;10.290;2022-10-28T15:03:42;9.98;;;2.65;;
50092;SDS011;35974;47.752;10.290;2022-10-28T15:08:50;11.90;;;2.58;;
50092;SDS011;35974;47.752;10.290;2022-10-28T15:11:19;11.27;;;2.50;;
50092;SDS011;35974;47.752;10.290;2022-10-28T15:13:47;8.13;;;1.70;;
50092;SDS011;35974;47.752;10.290;2022-10-28T15:16:19;8.00;;;2.10;;
50092;SDS011;35974;47.752;10.290;2022-10-28T15:18:50;10.05;;;2.40;;
50092;SDS011;35974;47.752;10.290;2022-10-28T15:21:19;9.07;;;2.70;;
50092;SDS011;35974;47.752;10.290;2022-10-28T15:23:57;10.95;;;2.60;;
50092;SDS011;35974;47.752;10.290;2022-10-28T15:26:27;6.28;;;2.30;;
50092;SDS011;35974;47.752;10.290;2022-10-28T15:28:53;3.80;;;2.15;;
50092;SDS011;35974;47.752;10.290;2022-10-28T15:31:20;4.72;;;2.20;;
50092;SDS011;35974;47.752;10.290;2022-10-28T15:33:47;7.80;;;2.35;;
50092;SDS011;35974;47.752;10.290;2022-10-28T15:36:14;9.05;;;2.40;;
50092;SDS011;35974;47.752;10.290;2022-10-28T15:39:04;4.72;;;2.50;;
50092;SDS011;35974;47.752;10.290;2022-10-28T15:41:41;10.23;;;2.88;;
50092;SDS011;35974;47.752;10.290;2022-10-28T15:44:23;7.68;;;2.50;;
50092;SDS011;35974;47.752;10.290;2022-10-28T15:49:33;9.52;;;2.72;;
50092;SDS011;35974;47.752;10.290;2022-10-28T15:55:00;6.72;;;2.78;;
50092;SDS011;35974;47.752;10.290;2022-10-28T15:57:29;4.97;;;2.42;;
50092;SDS011;35974;47.752;10.290;2022-10-28T16:02:48;9.48;;;2.45;;
50092;SDS011;35974;47.752;10.290;2022-10-28T16:07:58;6.33;;;2.50;;
50092;SDS011;35974;47.752;10.290;2022-10-28T16:10:30;6.90;;;2.30;;
50092;SDS011;35974;47.752;10.290;2022-10-28T16:13:17;8.90;;;2.90;;
50092;SDS011;35974;47.752;10.290;2022-10-28T16:15:55;7.72;;;4.22;;
50092;SDS011;35974;47.752;10.290;2022-10-28T16:18:25;8.18;;;3.78;;
50092;SDS011;35974;47.752;10.290;2022-10-28T16:20:53;7.97;;;4.57;;
50092;SDS011;35974;47.752;10.290;2022-10-28T16:23:22;11.13;;;4.53;;
50092;SDS011;35974;47.752;10.290;2022-10-28T16:25:51;18.05;;;5.03;;
50092;SDS011;35974;47.752;10.290;2022-10-28T16:28:24;9.00;;;4.57;;
50092;SDS011;35974;47.752;10.290;2022-10-28T16:30:55;9.38;;;4.82;;
50092;SDS011;35974;47.752;10.290;2022-10-28T16:33:31;8.25;;;4.25;;
50092;SDS011;35974;47.752;10.290;2022-10-28T16:35:59;9.75;;;4.30;;
50092;SDS011;35974;47.752;10.290;2022-10-28T16:38:28;11.18;;;4.75;;
50092;SDS011;35974;47.752;10.290;2022-10-28T16:40:56;13.73;;;4.88;;
50092;SDS011;35974;47.752;10.290;2022-10-28T16:43:25;13.68;;;4.68;;
50092;SDS011;35974;47.752;10.290;2022-10-28T16:45:53;8.45;;;4.10;;
50092;SDS011;35974;47.752;10.290;2022-10-28T16:48:23;9.93;;;4.22;;
50092;SDS011;35974;47.752;10.290;2022-10-28T16:50:52;10.20;;;4.15;;
50092;SDS011;35974;47.752;10.290;2022-10-28T16:53:21;9.48;;;4.90;;
50092;SDS011;35974;47.752;10.290;2022-10-28T16:55:48;12.02;;;4.97;;
50092;SDS011;35974;47.752;10.290;2022-10-28T16:58:15;14.80;;;4.50;;
50092;SDS011;35974;47.752;10.290;2022-10-28T17:00:41;9.80;;;4.85;;
50092;SDS011;35974;47.752;10.290;2022-10-28T17:03:12;11.65;;;6.70;;
50092;SDS011;35974;47.752;10.290;2022-10-28T17:05:42;9.60;;;4.25;;
50092;SDS011;35974;47.752;10.290;2022-10-28T17:08:09;7.43;;;4.30;;
50092;SDS011;35974;47.752;10.290;2022-10-28T17:10:37;8.60;;;3.90;;
50092;SDS011;35974;47.752;10.290;2022-10-28T17:13:12;8.55;;;4.18;;
50092;SDS011;35974;47.752;10.290;2022-10-28T17:15:39;10.65;;;4.22;;
50092;SDS011;35974;47.752;10.290;2022-10-28T17:18:07;14.90;;;5.78;;
50092;SDS011;35974;47.752;10.290;2022-10-28T17:20:36;20.02;;;6.85;;
50092;SDS011;35974;47.752;10.290;2022-10-28T17:23:02;15.57;;;6.97;;
50092;SDS011;35974;47.752;10.290;2022-10-28T17:25:29;24.05;;;11.77;;
50092;SDS011;35974;47.752;10.290;2022-10-28T17:27:56;13.40;;;6.78;;
50092;SDS011;35974;47.752;10.290;2022-10-28T17:30:24;15.40;;;5.40;;
50092;SDS011;35974;47.752;10.290;2022-10-28T17:32:51;12.50;;;4.95;;
50092;SDS011;35974;47.752;10.290;2022-10-28T17:35:20;14.60;;;5.35;;
50092;SDS011;35974;47.752;10.290;2022-10-28T17:37:48;12.48;;;5.28;;
50092;SDS011;35974;47.752;10.290;2022-10-28T17:40:17;8.93;;;4.82;;
50092;SDS011;35974;47.752;10.290;2022-10-28T17:42:43;6.45;;;3.90;;
50092;SDS011;35974;47.752;10.290;2022-10-28T17:45:09;9.60;;;4.13;;
50092;SDS011;35974;47.752;10.290;2022-10-28T17:47:36;13.20;;;4.10;;
50092;SDS011;35974;47.752;10.290;2022-10-28T17:50:03;11.15;;;3.97;;
50092;SDS011;35974;47.752;10.290;2022-10-28T17:52:32;8.05;;;4.00;;
50092;SDS011;35974;47.752;10.290;2022-10-28T17:55:03;13.45;;;4.55;;
50092;SDS011;35974;47.752;10.290;2022-10-28T17:57:30;11.63;;;4.47;;
50092;SDS011;35974;47.752;10.290;2022-10-28T17:59:57;10.68;;;4.00;;
50092;SDS011;35974;47.752;10.290;2022-10-28T18:02:23;11.63;;;4.20;;
50092;SDS011;35974;47.752;10.290;2022-10-28T18:04:50;9.65;;;4.50;;
50092;SDS011;35974;47.752;10.290;2022-10-28T18:07:16;9.23;;;4.20;;
50092;SDS011;35974;47.752;10.290;2022-10-28T18:09:43;11.25;;;4.15;;
50092;SDS011;35974;47.752;10.290;2022-10-28T18:12:09;11.57;;;4.88;;
50092;SDS011;35974;47.752;10.290;2022-10-28T18:14:37;9.38;;;3.90;;